Time;durP1;ratioP1;P1;durP2;ratioP2;P2;SDS_P1;SDS_P2;PMS_P1;PMS_P2;Temp;Humidity;BMP_temperature;BMP_pressure;BME280_temperature;BME280_humidity;BME280_pressure;Samples;Min_cycle;Max_cycle;Signal;HPM_P1;HPM_P2
2022/03/16 00:01:59;;;;;;;5.85;5.10;;;21.60;41.20;;;;;;4970382;28;20157;-59
2022/03/16 00:04:25;;;;;;;6.38;5.60;;;21.60;41.30;;;;;;4973094;28;20269;-59
2022/03/16 00:06:51;;;;;;;6.50;5.90;;;21.60;41.20;;;;;;4972286;28;20047;-59
2022/03/16 00:09:16;;;;;;;6.28;5.68;;;21.60;41.10;;;;;;4974113;28;20057;-58
2022/03/16 00:11:42;;;;;;;6.57;5.57;;;21.50;41.10;;;;;;4987768;28;20054;-59
2022/03/16 00:14:07;;;;;;;6.90;5.82;;;21.50;41.10;;;;;;4981197;28;20406;-58
2022/03/16 00:16:33;;;;;;;6.20;5.60;;;21.50;41.00;;;;;;4974034;28;20053;-59
2022/03/16 00:18:59;;;;;;;5.60;4.93;;;21.50;41.00;;;;;;4975887;28;20038;-58
2022/03/16 00:21:24;;;;;;;6.57;5.85;;;21.40;40.90;;;;;;4974058;28;20058;-59
2022/03/16 00:23:50;;;;;;;6.07;5.47;;;21.50;41.00;;;;;;4974183;28;20046;-59
2022/03/16 00:26:16;;;;;;;6.15;5.55;;;21.50;40.90;;;;;;4973594;28;20050;-58
2022/03/16 00:28:41;;;;;;;5.72;4.85;;;21.50;40.90;;;;;;4975724;28;20466;-58
2022/03/16 00:31:07;;;;;;;6.13;5.47;;;21.50;40.90;;;;;;4975026;28;20073;-68
2022/03/16 00:33:32;;;;;;;8.00;5.45;;;21.50;40.90;;;;;;4957588;28;20050;-58
2022/03/16 00:35:58;;;;;;;7.10;5.63;;;21.40;40.90;;;;;;4972286;28;20449;-59
2022/03/16 00:38:24;;;;;;;6.10;5.50;;;21.40;40.80;;;;;;4974644;28;20055;-59
2022/03/16 00:40:50;;;;;;;5.47;4.97;;;21.40;40.80;;;;;;4976101;28;20133;-58
2022/03/16 00:43:15;;;;;;;6.40;5.80;;;21.40;40.80;;;;;;4980788;28;20054;-59
2022/03/16 00:45:41;;;;;;;7.07;5.55;;;21.40;40.80;;;;;;4974448;28;20049;-59
2022/03/16 00:48:06;;;;;;;6.30;5.70;;;21.40;40.80;;;;;;4975163;28;20482;-58
2022/03/16 00:50:34;;;;;;;6.78;5.75;;;21.30;40.80;;;;;;4974346;28;20051;-59
2022/03/16 00:53:00;;;;;;;6.15;5.55;;;21.30;40.70;;;;;;4980335;28;20062;-59
2022/03/16 00:55:25;;;;;;;6.47;5.88;;;21.30;40.80;;;;;;4973542;28;20517;-59
2022/03/16 00:57:51;;;;;;;7.18;5.70;;;21.30;40.80;;;;;;4972388;28;20546;-58
2022/03/16 01:00:16;;;;;;;7.25;6.45;;;21.30;40.80;;;;;;4974563;28;20046;-58
2022/03/16 01:02:42;;;;;;;7.63;5.47;;;21.30;40.80;;;;;;4969884;28;20061;-58
2022/03/16 01:05:08;;;;;;;7.50;6.53;;;21.30;40.80;;;;;;4975674;28;20124;-59
2022/03/16 01:07:33;;;;;;;6.47;5.88;;;21.30;40.80;;;;;;4974554;28;20450;-57
2022/03/16 01:09:59;;;;;;;6.32;5.72;;;21.20;40.80;;;;;;4974470;28;20046;-58
2022/03/16 01:12:25;;;;;;;6.75;5.70;;;21.20;40.80;;;;;;4975287;28;20098;-58
2022/03/16 01:14:50;;;;;;;6.68;5.72;;;21.20;40.80;;;;;;4975867;28;20046;-58
2022/03/16 01:17:16;;;;;;;6.18;5.57;;;21.20;40.80;;;;;;4975133;28;20050;-58
2022/03/16 01:19:42;;;;;;;6.65;6.05;;;21.20;40.80;;;;;;4973533;28;20047;-58
2022/03/16 01:22:08;;;;;;;6.65;5.50;;;21.20;40.80;;;;;;4974596;28;20046;-59
2022/03/16 01:24:33;;;;;;;6.57;5.68;;;21.20;40.80;;;;;;4975325;28;20069;-59
2022/03/16 01:26:59;;;;;;;6.80;5.93;;;21.20;40.80;;;;;;4971873;28;20313;-58
2022/03/16 01:29:25;;;;;;;6.60;5.68;;;21.20;40.80;;;;;;4975357;28;20049;-58
2022/03/16 01:31:54;;;;;;;5.70;5.20;;;21.10;40.70;;;;;;4972823;28;20047;-58
2022/03/16 01:34:21;;;;;;;5.82;5.25;;;21.10;40.70;;;;;;4973862;28;20069;-59
2022/03/16 01:36:47;;;;;;;6.22;5.43;;;21.20;40.70;;;;;;4971752;28;20148;-58
2022/03/16 01:39:13;;;;;;;7.38;6.20;;;21.10;40.70;;;;;;4969458;28;20069;-58
2022/03/16 01:41:39;;;;;;;6.88;6.18;;;21.10;40.60;;;;;;4973762;28;20047;-58
2022/03/16 01:44:05;;;;;;;6.60;5.65;;;21.10;40.60;;;;;;4974513;28;20057;-59
2022/03/16 01:46:30;;;;;;;5.93;5.28;;;21.10;40.60;;;;;;4973078;28;20520;-58
2022/03/16 01:48:58;;;;;;;6.55;5.95;;;21.10;40.60;;;;;;4973775;28;20581;-58
2022/03/16 01:51:24;;;;;;;6.18;5.60;;;21.10;40.60;;;;;;4970730;28;20100;-58
2022/03/16 01:53:50;;;;;;;6.28;5.68;;;21.00;40.50;;;;;;4973061;28;20190;-59
2022/03/16 01:56:16;;;;;;;5.95;5.25;;;21.00;40.50;;;;;;4974417;28;20080;-58
2022/03/16 01:58:42;;;;;;;5.78;5.18;;;21.10;40.60;;;;;;4971783;28;20537;-58
2022/03/16 02:01:08;;;;;;;7.25;5.57;;;21.00;40.50;;;;;;4973460;28;20054;-59
2022/03/16 02:03:33;;;;;;;6.32;5.75;;;21.00;41.20;;;;;;4973348;28;20124;-58
2022/03/16 02:06:00;;;;;;;5.90;5.30;;;21.00;40.40;;;;;;4976114;28;20054;-59
2022/03/16 02:08:28;;;;;;;6.57;5.97;;;21.00;40.40;;;;;;4971668;28;20085;-59
2022/03/16 02:10:54;;;;;;;6.85;6.15;;;21.00;40.30;;;;;;4973183;28;20049;-59
2022/03/16 02:13:19;;;;;;;6.35;5.75;;;20.90;40.30;;;;;;4971407;28;20042;-58
2022/03/16 02:15:45;;;;;;;6.22;5.68;;;21.00;40.30;;;;;;4973930;28;20136;-59
2022/03/16 02:18:10;;;;;;;5.88;5.25;;;20.90;40.20;;;;;;4973604;28;20053;-59
2022/03/16 02:20:37;;;;;;;6.72;5.40;;;21.00;40.20;;;;;;4972396;28;20049;-58
2022/03/16 02:23:07;;;;;;;5.45;4.95;;;21.00;40.20;;;;;;4972359;28;20670;-59
2022/03/16 02:25:47;;;;;;;5.63;5.13;;;20.90;40.20;;;;;;4972355;28;20142;-58
2022/03/16 02:28:12;;;;;;;5.85;5.25;;;20.90;40.10;;;;;;4973259;28;20065;-58
2022/03/16 02:30:38;;;;;;;6.88;5.88;;;20.90;40.20;;;;;;4956142;28;20046;-60
2022/03/16 02:33:04;;;;;;;5.32;4.82;;;20.90;40.10;;;;;;4969839;28;20244;-59
2022/03/16 02:35:31;;;;;;;5.30;4.80;;;20.90;40.10;;;;;;4969827;28;20129;-59
2022/03/16 02:37:58;;;;;;;5.38;4.75;;;20.80;40.00;;;;;;4971543;28;20509;-58
2022/03/16 02:40:24;;;;;;;5.32;4.93;;;20.90;40.10;;;;;;4971839;28;20047;-58
2022/03/16 02:42:51;;;;;;;5.55;5.00;;;20.80;40.00;;;;;;4972047;28;20042;-59
2022/03/16 02:45:17;;;;;;;5.07;4.57;;;20.80;40.00;;;;;;4954772;28;20050;-59
2022/03/16 02:47:44;;;;;;;5.28;4.78;;;20.80;40.00;;;;;;4971160;28;20083;-60
2022/03/16 02:50:12;;;;;;;4.82;4.43;;;20.80;39.90;;;;;;4972014;28;20133;-58
2022/03/16 02:52:38;;;;;;;5.13;4.20;;;20.80;39.90;;;;;;4973530;28;20061;-57
2022/03/16 02:55:04;;;;;;;4.88;4.35;;;20.80;39.80;;;;;;4971587;28;20042;-61
2022/03/16 02:57:30;;;;;;;4.82;4.43;;;20.80;39.90;;;;;;4972209;28;20058;-58
2022/03/16 02:59:56;;;;;;;4.68;4.28;;;20.80;39.80;;;;;;4972587;28;20538;-58
2022/03/16 03:02:22;;;;;;;4.45;4.05;;;20.80;39.80;;;;;;4966534;28;20050;-58
2022/03/16 03:04:47;;;;;;;4.70;4.30;;;20.80;39.80;;;;;;4972422;28;20050;-58
2022/03/16 03:07:13;;;;;;;4.70;4.30;;;20.80;40.50;;;;;;4971646;28;20154;-58
2022/03/16 03:09:38;;;;;;;5.32;4.78;;;20.80;39.80;;;;;;4975809;28;20141;-58
2022/03/16 03:12:05;;;;;;;4.30;4.00;;;20.80;39.80;;;;;;4975384;28;20406;-58
2022/03/16 03:14:31;;;;;;;4.80;4.40;;;20.70;39.80;;;;;;4975488;28;20043;-58
2022/03/16 03:16:57;;;;;;;4.63;4.18;;;20.70;39.70;;;;;;4991849;28;20085;-58
2022/03/16 03:19:22;;;;;;;4.60;4.20;;;20.70;39.60;;;;;;4972086;28;20434;-57
2022/03/16 03:21:49;;;;;;;4.90;4.35;;;20.70;39.60;;;;;;4970952;28;20074;-58
2022/03/16 03:24:15;;;;;;;4.93;4.13;;;20.70;39.60;;;;;;4973634;28;20558;-58
2022/03/16 03:26:40;;;;;;;4.70;4.30;;;20.70;39.60;;;;;;4975644;28;20133;-60
2022/03/16 03:29:06;;;;;;;4.75;4.30;;;20.70;39.60;;;;;;4976040;28;20138;-59
2022/03/16 03:31:32;;;;;;;4.80;4.40;;;20.70;39.60;;;;;;4973803;28;20130;-59
2022/03/16 03:33:57;;;;;;;4.47;4.07;;;20.70;39.60;;;;;;4981444;28;20173;-59
2022/03/16 03:36:23;;;;;;;4.88;4.47;;;20.60;39.40;;;;;;4976057;28;20398;-58
2022/03/16 03:38:49;;;;;;;5.13;4.63;;;20.70;39.50;;;;;;4976789;28;20054;-58
2022/03/16 03:41:14;;;;;;;5.00;4.57;;;20.60;40.20;;;;;;4972886;28;20046;-58
2022/03/16 03:43:40;;;;;;;4.78;4.30;;;20.60;39.40;;;;;;4975804;28;20038;-58
2022/03/16 03:46:06;;;;;;;5.20;4.70;;;20.60;39.40;;;;;;4974980;28;20059;-58
2022/03/16 03:48:31;;;;;;;4.88;4.47;;;20.60;39.40;;;;;;4972255;28;20054;-58
2022/03/16 03:50:57;;;;;;;5.05;4.60;;;20.60;39.40;;;;;;4975004;28;20050;-59
2022/03/16 03:53:22;;;;;;;4.65;4.32;;;20.60;39.40;;;;;;4977868;28;20054;-58
2022/03/16 03:55:48;;;;;;;4.70;4.30;;;20.60;39.40;;;;;;4975989;28;20058;-58
2022/03/16 03:58:14;;;;;;;4.78;4.38;;;20.60;39.40;;;;;;4975357;28;20240;-59
2022/03/16 04:00:39;;;;;;;5.18;4.72;;;20.60;39.30;;;;;;4975409;28;20134;-58
2022/03/16 04:03:05;;;;;;;4.85;4.45;;;20.60;39.30;;;;;;4975176;28;20082;-59
2022/03/16 04:05:30;;;;;;;4.72;4.32;;;20.50;39.20;;;;;;4972494;28;20039;-58
2022/03/16 04:07:56;;;;;;;5.13;4.70;;;20.60;39.30;;;;;;4976154;28;20042;-58
2022/03/16 04:10:21;;;;;;;5.15;4.63;;;20.60;39.30;;;;;;4979016;28;20050;-59
2022/03/16 04:12:48;;;;;;;4.82;4.43;;;20.50;39.30;;;;;;4958818;28;20352;-58
2022/03/16 04:15:14;;;;;;;4.47;4.10;;;20.50;39.30;;;;;;4973189;28;20116;-58
2022/03/16 04:17:39;;;;;;;4.60;4.20;;;20.50;39.20;;;;;;4974663;28;20058;-58
2022/03/16 04:20:06;;;;;;;4.63;4.22;;;20.50;39.20;;;;;;4973141;28;20137;-58
2022/03/16 04:22:32;;;;;;;4.10;3.80;;;20.50;39.20;;;;;;4974694;28;20079;-59
2022/03/16 04:24:57;;;;;;;4.50;4.10;;;20.50;39.30;;;;;;4974289;28;20131;-59
2022/03/16 04:27:24;;;;;;;4.65;4.25;;;20.50;39.20;;;;;;4975726;28;20583;-59
2022/03/16 04:29:49;;;;;;;4.55;4.15;;;20.50;39.20;;;;;;4973610;28;20055;-59
2022/03/16 04:32:15;;;;;;;4.50;4.10;;;20.50;39.20;;;;;;4976174;28;20053;-58
2022/03/16 04:34:41;;;;;;;4.40;4.00;;;20.50;39.20;;;;;;4974407;28;20070;-59
2022/03/16 04:37:07;;;;;;;4.10;3.80;;;20.50;39.20;;;;;;4976266;28;20047;-58
2022/03/16 04:39:32;;;;;;;4.15;3.72;;;20.50;39.20;;;;;;4975023;28;20105;-58
2022/03/16 04:41:58;;;;;;;4.53;4.13;;;20.40;39.10;;;;;;4974085;28;20043;-59
2022/03/16 04:44:24;;;;;;;4.20;3.88;;;20.40;39.10;;;;;;4976951;28;20074;-58
2022/03/16 04:46:49;;;;;;;4.03;3.65;;;20.40;39.10;;;;;;4973664;28;20070;-60
2022/03/16 04:49:15;;;;;;;4.35;3.95;;;20.40;39.10;;;;;;4974484;28;20069;-58
2022/03/16 04:51:41;;;;;;;4.40;4.00;;;20.40;39.10;;;;;;4971041;28;20082;-58
2022/03/16 04:54:10;;;;;;;4.55;4.15;;;20.40;39.10;;;;;;4986185;28;20480;-59
2022/03/16 04:56:36;;;;;;;4.88;4.47;;;20.40;39.10;;;;;;4971122;28;20112;-59
2022/03/16 04:59:03;;;;;;;4.75;4.35;;;20.40;39.10;;;;;;4974473;28;20055;-60
2022/03/16 05:01:29;;;;;;;4.60;4.20;;;20.40;39.10;;;;;;4968484;28;20038;-58
2022/03/16 05:03:54;;;;;;;4.93;4.53;;;20.40;39.10;;;;;;4973358;28;20038;-58
2022/03/16 05:06:20;;;;;;;4.43;4.03;;;20.40;39.10;;;;;;4971551;28;20050;-59
2022/03/16 05:08:47;;;;;;;4.53;4.13;;;20.40;39.10;;;;;;4972568;28;20328;-58
2022/03/16 05:11:13;;;;;;;4.65;4.22;;;20.30;39.00;;;;;;4974096;28;20513;-58
2022/03/16 05:13:39;;;;;;;4.38;3.97;;;20.40;39.10;;;;;;4972560;28;20050;-58
2022/03/16 05:16:06;;;;;;;4.68;4.25;;;20.40;39.10;;;;;;4973564;28;20042;-58
2022/03/16 05:18:34;;;;;;;4.85;4.10;;;20.40;39.90;;;;;;4974397;28;20062;-58
2022/03/16 05:21:00;;;;;;;4.68;4.28;;;20.40;39.10;;;;;;4975838;28;20042;-59
2022/03/16 05:23:25;;;;;;;4.57;4.22;;;20.30;39.10;;;;;;4972815;28;20089;-59
2022/03/16 05:25:51;;;;;;;4.70;4.30;;;20.30;39.10;;;;;;4974823;28;20050;-59
2022/03/16 05:28:17;;;;;;;3.90;3.60;;;20.30;39.00;;;;;;4973142;28;20058;-59
2022/03/16 05:30:43;;;;;;;4.18;3.80;;;20.30;39.00;;;;;;4974462;28;20529;-59
2022/03/16 05:33:09;;;;;;;3.95;3.65;;;20.30;39.00;;;;;;4979538;28;20085;-59
2022/03/16 05:35:34;;;;;;;4.18;3.78;;;20.30;39.00;;;;;;4975315;28;20050;-61
2022/03/16 05:38:02;;;;;;;3.53;3.22;;;20.30;39.20;;;;;;4971154;28;20058;-58
2022/03/16 05:40:28;;;;;;;4.28;3.55;;;20.30;39.30;;;;;;4975744;28;20058;-59
2022/03/16 05:42:54;;;;;;;3.83;3.47;;;20.30;39.40;;;;;;4975753;28;20042;-59
2022/03/16 05:45:19;;;;;;;3.83;3.42;;;20.30;39.40;;;;;;4975810;28;20073;-58
2022/03/16 05:47:45;;;;;;;3.60;3.40;;;20.20;39.40;;;;;;4973774;28;20533;-58
2022/03/16 05:50:11;;;;;;;3.78;3.47;;;20.30;39.70;;;;;;4957268;28;20090;-59
2022/03/16 05:52:37;;;;;;;3.65;3.40;;;20.20;39.40;;;;;;4974927;28;20149;-57
2022/03/16 05:55:04;;;;;;;3.90;3.60;;;20.20;39.40;;;;;;4972906;28;20453;-59
2022/03/16 05:57:29;;;;;;;3.67;3.30;;;20.20;39.40;;;;;;4974571;28;20055;-59
2022/03/16 05:59:55;;;;;;;3.03;2.83;;;20.20;39.50;;;;;;4974014;28;20057;-60
2022/03/16 06:02:21;;;;;;;3.58;3.28;;;20.20;39.40;;;;;;4973874;28;20553;-60
2022/03/16 06:04:46;;;;;;;3.70;3.45;;;20.20;39.50;;;;;;4973462;28;20569;-59
2022/03/16 06:07:12;;;;;;;3.28;3.08;;;20.20;39.50;;;;;;4971709;28;20050;-58
2022/03/16 06:09:38;;;;;;;3.40;3.10;;;20.20;39.50;;;;;;4974960;28;20056;-59
2022/03/16 06:12:04;;;;;;;3.50;3.22;;;20.20;39.40;;;;;;4975244;28;20122;-59
2022/03/16 06:14:31;;;;;;;3.72;3.10;;;20.20;39.40;;;;;;4973875;28;20055;-59
2022/03/16 06:16:57;;;;;;;3.38;3.10;;;20.20;39.50;;;;;;4974076;28;20367;-60
2022/03/16 06:19:23;;;;;;;3.78;3.17;;;20.20;39.50;;;;;;4971880;28;20069;-59
2022/03/16 06:21:48;;;;;;;4.20;3.17;;;20.20;39.50;;;;;;4971257;28;20058;-58
2022/03/16 06:24:14;;;;;;;3.55;3.10;;;20.20;39.50;;;;;;4971324;28;20081;-59
2022/03/16 06:26:41;;;;;;;3.60;3.30;;;20.20;39.60;;;;;;4971672;28;20158;-60
2022/03/16 06:29:06;;;;;;;3.88;3.58;;;20.10;39.60;;;;;;4972667;28;20212;-59
2022/03/16 06:31:32;;;;;;;3.78;3.45;;;20.10;39.70;;;;;;4974189;28;20478;-59
2022/03/16 06:33:58;;;;;;;3.92;3.60;;;20.10;39.80;;;;;;4972480;28;20058;-59
2022/03/16 06:36:26;;;;;;;3.85;3.55;;;20.10;39.80;;;;;;4972361;28;20578;-59
2022/03/16 06:38:55;;;;;;;4.32;3.92;;;20.10;39.90;;;;;;4975287;28;20514;-59
2022/03/16 06:41:21;;;;;;;4.30;3.72;;;20.10;39.90;;;;;;4973448;28;20057;-59
2022/03/16 06:43:47;;;;;;;5.70;4.20;;;20.10;40.60;;;;;;4974965;28;20043;-59
2022/03/16 06:46:13;;;;;;;4.22;3.88;;;20.10;39.90;;;;;;4972384;28;20159;-58
2022/03/16 06:48:39;;;;;;;6.03;4.10;;;20.10;39.90;;;;;;4973966;28;20129;-58
2022/03/16 06:51:05;;;;;;;4.32;4.00;;;20.10;39.90;;;;;;4972664;28;20115;-59
2022/03/16 06:53:31;;;;;;;4.90;4.50;;;20.10;39.90;;;;;;4989290;28;20086;-59
2022/03/16 06:55:56;;;;;;;4.78;4.35;;;20.10;39.90;;;;;;4973352;28;20133;-58
2022/03/16 06:58:22;;;;;;;4.43;4.00;;;20.10;39.80;;;;;;4976847;28;20137;-59
2022/03/16 07:00:48;;;;;;;4.18;3.78;;;20.10;39.90;;;;;;4973804;28;20043;-59
2022/03/16 07:03:13;;;;;;;4.70;4.30;;;20.10;39.90;;;;;;4973565;28;20046;-59
2022/03/16 07:05:41;;;;;;;4.68;4.00;;;20.20;40.00;;;;;;4973058;28;20078;-59
2022/03/16 07:08:12;;;;;;;4.38;3.97;;;20.20;40.10;;;;;;4973129;28;20402;-59
2022/03/16 07:10:40;;;;;;;4.40;4.07;;;20.20;40.10;;;;;;4972857;28;20473;-59
2022/03/16 07:13:07;;;;;;;4.43;4.03;;;20.20;40.00;;;;;;4973271;28;20079;-58
2022/03/16 07:15:33;;;;;;;5.60;4.10;;;20.20;40.10;;;;;;4970890;28;20050;-58
2022/03/16 07:18:01;;;;;;;4.40;4.00;;;20.20;40.20;;;;;;4970199;28;20051;-58
2022/03/16 07:20:27;;;;;;;4.57;4.18;;;20.20;40.30;;;;;;4970966;28;20095;-59
2022/03/16 07:23:09;;;;;;;4.60;4.07;;;20.30;40.60;;;;;;4972899;28;20078;-58
2022/03/16 07:25:43;;;;;;;4.60;4.20;;;20.30;40.80;;;;;;4970676;28;20084;-58
2022/03/16 07:28:09;;;;;;;5.25;4.80;;;20.30;40.80;;;;;;4973344;28;20046;-58
2022/03/16 07:30:35;;;;;;;4.60;4.20;;;20.40;40.90;;;;;;4973231;28;20097;-58
2022/03/16 07:33:02;;;;;;;6.97;5.00;;;20.30;40.90;;;;;;4973171;28;20437;-58
2022/03/16 07:35:27;;;;;;;5.82;4.88;;;20.40;41.10;;;;;;4973125;28;20073;-57
2022/03/16 07:37:57;;;;;;;5.32;4.82;;;20.40;41.20;;;;;;4975414;28;20470;-58
2022/03/16 07:40:24;;;;;;;5.55;5.05;;;20.40;41.20;;;;;;4975999;28;20034;-57
2022/03/16 07:42:50;;;;;;;5.05;4.60;;;20.40;41.30;;;;;;4970512;28;20097;-57
2022/03/16 07:45:18;;;;;;;6.63;5.00;;;20.40;41.30;;;;;;4971799;28;20105;-58
2022/03/16 07:47:45;;;;;;;5.20;4.53;;;20.40;41.30;;;;;;4975846;28;20061;-59
2022/03/16 07:50:10;;;;;;;5.32;4.40;;;20.40;41.30;;;;;;4975130;28;20054;-59
2022/03/16 07:52:37;;;;;;;5.13;4.60;;;20.50;41.30;;;;;;4976428;28;20114;-58
2022/03/16 07:55:04;;;;;;;4.82;4.30;;;20.40;41.20;;;;;;4975079;28;20125;-58
2022/03/16 07:57:30;;;;;;;4.75;3.80;;;20.40;41.20;;;;;;4974415;28;20073;-58
2022/03/16 07:59:56;;;;;;;5.20;4.80;;;20.50;41.20;;;;;;4981434;28;20501;-59
2022/03/16 08:02:22;;;;;;;6.78;4.88;;;20.50;41.30;;;;;;4975101;28;20593;-58
2022/03/16 08:04:47;;;;;;;4.95;4.40;;;20.50;41.20;;;;;;4975112;28;20038;-58
2022/03/16 08:07:14;;;;;;;5.50;5.00;;;20.50;41.30;;;;;;4971817;28;20046;-60
2022/03/16 08:09:41;;;;;;;4.90;4.40;;;20.50;41.20;;;;;;4974568;28;20363;-58
2022/03/16 08:12:07;;;;;;;5.25;4.75;;;20.50;41.30;;;;;;4974740;28;20494;-59
2022/03/16 08:14:33;;;;;;;5.47;4.68;;;20.50;41.20;;;;;;4973944;28;20046;-58
2022/03/16 08:16:58;;;;;;;5.18;4.50;;;20.50;41.20;;;;;;4975751;28;20062;-58
2022/03/16 08:19:24;;;;;;;5.03;4.53;;;20.50;41.20;;;;;;4974888;28;20121;-58
2022/03/16 08:21:49;;;;;;;5.07;4.63;;;20.50;41.20;;;;;;4976804;28;20521;-58
2022/03/16 08:24:16;;;;;;;9.88;7.13;;;20.50;41.10;;;;;;4975906;28;20506;-58
2022/03/16 08:26:41;;;;;;;30.05;18.00;;;20.60;41.20;;;;;;4972713;28;20521;-58
2022/03/16 08:29:10;;;;;;;29.10;18.27;;;20.60;41.30;;;;;;4974730;28;20038;-58
2022/03/16 08:31:36;;;;;;;30.70;16.52;;;20.60;41.50;;;;;;4973414;28;20047;-59
2022/03/16 08:34:02;;;;;;;26.17;14.70;;;20.50;41.70;;;;;;4974848;28;20046;-58
2022/03/16 08:36:28;;;;;;;30.33;17.13;;;20.50;41.80;;;;;;4972852;28;20086;-58
2022/03/16 08:38:54;;;;;;;29.75;15.52;;;20.60;42.20;;;;;;4975712;28;20737;-58
2022/03/16 08:41:20;;;;;;;28.80;14.45;;;20.50;42.10;;;;;;4975993;28;20122;-58
2022/03/16 08:43:46;;;;;;;27.75;13.85;;;20.60;42.30;;;;;;4974219;28;20295;-58
2022/03/16 08:46:11;;;;;;;28.65;14.93;;;20.50;42.40;;;;;;4975753;28;20053;-58
2022/03/16 08:48:37;;;;;;;25.02;13.60;;;20.60;42.60;;;;;;4976190;28;20058;-58
2022/03/16 08:51:03;;;;;;;25.45;12.48;;;20.60;42.70;;;;;;4974288;28;20507;-58
2022/03/16 08:53:29;;;;;;;21.20;11.65;;;20.60;42.70;;;;;;4976739;28;20137;-58
2022/03/16 08:55:55;;;;;;;24.67;12.05;;;20.60;42.70;;;;;;4975802;28;20133;-58
2022/03/16 08:58:20;;;;;;;22.30;12.20;;;20.60;42.80;;;;;;4974308;28;20051;-58
2022/03/16 09:00:46;;;;;;;21.02;11.68;;;20.60;42.70;;;;;;4975376;28;20055;-58
2022/03/16 09:03:11;;;;;;;19.98;10.63;;;20.60;42.70;;;;;;4976093;28;20058;-58
2022/03/16 09:05:37;;;;;;;22.08;10.02;;;20.60;42.60;;;;;;4976271;28;20609;-59
2022/03/16 09:08:03;;;;;;;19.83;10.20;;;20.60;42.60;;;;;;4972412;28;20213;-58
2022/03/16 09:10:29;;;;;;;27.08;12.02;;;20.60;42.60;;;;;;4973811;28;20089;-58
2022/03/16 09:12:55;;;;;;;18.77;9.82;;;20.60;42.60;;;;;;4975060;28;20054;-59
2022/03/16 09:15:20;;;;;;;19.25;8.77;;;20.60;42.70;;;;;;4975178;28;20451;-59
2022/03/16 09:17:46;;;;;;;20.15;10.27;;;20.60;42.70;;;;;;4973730;28;20065;-58
2022/03/16 09:20:11;;;;;;;21.05;9.27;;;20.60;42.60;;;;;;4974485;28;20046;-59
2022/03/16 09:22:37;;;;;;;16.77;8.57;;;20.60;42.60;;;;;;4974903;28;20763;-59
2022/03/16 09:25:03;;;;;;;13.82;8.05;;;20.70;42.70;;;;;;4975794;28;20496;-59
2022/03/16 09:27:29;;;;;;;16.20;8.70;;;20.70;42.70;;;;;;4975574;28;20498;-58
2022/03/16 09:29:55;;;;;;;16.55;8.15;;;20.60;42.70;;;;;;4975423;28;20166;-58
2022/03/16 09:32:22;;;;;;;11.98;7.53;;;20.60;42.60;;;;;;4975746;28;20042;-58
2022/03/16 09:34:48;;;;;;;14.18;8.00;;;20.60;42.60;;;;;;4970463;28;20046;-58
2022/03/16 09:37:14;;;;;;;14.13;7.10;;;20.60;42.60;;;;;;4972824;28;20051;-59
2022/03/16 09:39:40;;;;;;;16.40;7.30;;;20.70;42.60;;;;;;4974270;28;20576;-58
2022/03/16 09:42:08;;;;;;;13.75;7.28;;;20.60;42.60;;;;;;4969408;28;20049;-59
2022/03/16 09:44:34;;;;;;;10.85;6.60;;;20.70;42.60;;;;;;4972742;28;20049;-58
2022/03/16 09:47:00;;;;;;;11.68;6.93;;;20.70;42.70;;;;;;4972926;28;20044;-58
2022/03/16 09:49:26;;;;;;;10.55;6.30;;;20.70;42.80;;;;;;4974188;28;20054;-58
2022/03/16 09:51:56;;;;;;;10.57;6.93;;;20.70;42.90;;;;;;4973888;28;20097;-58
2022/03/16 09:54:22;;;;;;;11.13;6.07;;;20.70;43.00;;;;;;4973930;28;20064;-58
2022/03/16 09:56:48;;;;;;;9.55;6.35;;;20.70;43.10;;;;;;4979786;28;20058;-58
2022/03/16 09:59:14;;;;;;;11.68;6.32;;;20.70;43.10;;;;;;4974219;28;20042;-58
2022/03/16 10:01:42;;;;;;;10.00;6.28;;;20.70;43.10;;;;;;4971751;28;20125;-58
2022/03/16 10:04:07;;;;;;;10.43;5.47;;;20.70;43.10;;;;;;4973367;28;20120;-59
2022/03/16 10:06:40;;;;;;;10.57;6.10;;;20.70;43.10;;;;;;4970495;28;20046;-58
2022/03/16 10:15:10;;;;;;;9.38;5.50;;;20.70;43.20;;;;;;4973822;28;20061;-58
2022/03/16 10:17:47;;;;;;;8.73;5.00;;;20.70;43.20;;;;;;4978272;28;20047;-58
2022/03/16 10:20:28;;;;;;;6.97;4.63;;;20.70;43.20;;;;;;4977398;28;20492;-58
2022/03/16 10:23:16;;;;;;;8.52;4.30;;;20.70;43.30;;;;;;4972108;28;20502;-58
2022/03/16 10:25:45;;;;;;;9.27;4.68;;;20.70;43.30;;;;;;4972788;28;20035;-58
2022/03/16 10:28:12;;;;;;;9.63;5.07;;;20.70;43.20;;;;;;4972805;28;20062;-58
2022/03/16 10:30:39;;;;;;;6.82;3.95;;;20.80;43.20;;;;;;4973276;28;20050;-58
2022/03/16 10:33:05;;;;;;;6.35;4.38;;;20.70;43.10;;;;;;4956116;28;20053;-58
2022/03/16 10:35:31;;;;;;;6.63;4.13;;;20.70;42.90;;;;;;4970957;28;20047;-58
2022/03/16 10:38:10;;;;;;;12.13;4.40;;;20.70;42.90;;;;;;4974622;28;20057;-58
2022/03/16 10:40:36;;;;;;;5.47;4.05;;;20.80;42.80;;;;;;4973100;28;20094;-58
2022/03/16 10:48:58;;;;;;;9.48;4.50;;;20.70;42.70;;;;;;4973370;28;20505;-59
2022/03/16 10:51:23;;;;;;;7.85;4.40;;;20.70;42.60;;;;;;4971542;28;20129;-59
2022/03/16 10:53:51;;;;;;;7.82;4.40;;;20.70;42.50;;;;;;4972404;28;20049;-58
2022/03/16 10:56:18;;;;;;;7.90;3.97;;;20.70;42.40;;;;;;4973865;28;20084;-58
2022/03/16 10:58:46;;;;;;;6.80;4.35;;;20.70;42.40;;;;;;4956062;28;20047;-59
2022/03/16 11:01:14;;;;;;;6.13;4.00;;;20.70;42.30;;;;;;4972301;28;20645;-58
2022/03/16 11:03:42;;;;;;;4.85;3.58;;;20.80;42.30;;;;;;4972376;28;20062;-58
2022/03/16 11:06:08;;;;;;;3.88;3.47;;;20.70;42.20;;;;;;4972914;28;20490;-58
2022/03/16 11:08:37;;;;;;;5.22;3.65;;;20.70;42.20;;;;;;4973476;28;20386;-58
2022/03/16 11:13:28;;;;;;;5.32;3.47;;;20.70;42.10;;;;;;4973728;28;20169;-58
2022/03/16 11:13:52;;;;;;;3.70;2.92;;;20.80;42.20;;;;;;4971906;28;20050;-58
2022/03/16 11:16:21;;;;;;;5.20;3.60;;;20.70;42.10;;;;;;4972693;28;20051;-58
2022/03/16 11:18:51;;;;;;;3.10;2.80;;;20.80;42.10;;;;;;4956077;28;20085;-58
2022/03/16 11:21:44;;;;;;;6.95;3.17;;;20.70;42.00;;;;;;4971335;28;20078;-58
2022/03/16 11:24:17;;;;;;;4.88;3.47;;;20.70;42.00;;;;;;4976388;28;20054;-58
2022/03/16 11:27:10;;;;;;;4.20;3.10;;;20.70;42.50;;;;;;4978829;28;20121;-58
2022/03/16 11:29:45;;;;;;;5.47;3.30;;;20.70;42.20;;;;;;4980175;28;20054;-58
2022/03/16 11:32:18;;;;;;;5.35;3.25;;;20.80;42.30;;;;;;4976407;28;20522;-58
2022/03/16 11:35:06;;;;;;;3.55;3.25;;;20.80;42.30;;;;;;4976695;28;20051;-58
2022/03/16 11:37:39;;;;;;;6.18;3.70;;;20.70;42.30;;;;;;4978541;28;20457;-59
2022/03/16 11:40:13;;;;;;;5.30;3.38;;;20.70;42.30;;;;;;4977693;28;20066;-58
2022/03/16 11:42:44;;;;;;;3.25;2.95;;;20.70;42.30;;;;;;4975976;28;20118;-58
2022/03/16 11:45:34;;;;;;;4.13;2.80;;;20.70;42.30;;;;;;4975017;28;20057;-58
2022/03/16 11:48:19;;;;;;;5.07;3.07;;;20.70;42.40;;;;;;4976925;28;20049;-58
2022/03/16 11:51:05;;;;;;;4.65;3.45;;;20.70;42.40;;;;;;4975829;28;20062;-59
2022/03/16 11:53:54;;;;;;;5.15;2.70;;;20.80;42.50;;;;;;4975439;28;20046;-58
2022/03/16 11:56:23;;;;;;;5.43;3.20;;;20.70;42.50;;;;;;4978435;28;20058;-58
2022/03/16 11:58:53;;;;;;;3.97;2.80;;;20.70;42.40;;;;;;4974931;28;20034;-58
2022/03/16 12:01:32;;;;;;;3.38;2.95;;;20.70;42.40;;;;;;4973865;28;20038;-58
2022/03/16 12:04:22;;;;;;;4.18;3.30;;;20.70;42.40;;;;;;4973418;28;20038;-58
2022/03/16 12:07:03;;;;;;;4.95;3.03;;;20.70;42.40;;;;;;4975401;28;20066;-59
2022/03/16 12:09:38;;;;;;;;;;;20.70;42.50;;;;;;4976499;28;20497;-58
2022/03/16 12:15:11;;;;;;;3.22;2.70;;;20.70;42.70;;;;;;4975411;28;20535;-59
2022/03/16 12:17:37;;;;;;;3.20;2.60;;;20.70;42.70;;;;;;4973922;28;20406;-58
2022/03/16 12:20:10;;;;;;;3.20;2.88;;;20.70;42.70;;;;;;4974735;28;20046;-58
2022/03/16 12:22:57;;;;;;;4.13;3.10;;;20.70;42.80;;;;;;4972333;28;20171;-58
2022/03/16 12:25:25;;;;;;;7.18;3.15;;;20.70;42.80;;;;;;4976564;28;20145;-59
2022/03/16 12:30:54;;;;;;;3.65;2.72;;;20.80;42.90;;;;;;4974938;28;20050;-58
2022/03/16 12:33:25;;;;;;;3.40;2.78;;;20.80;42.80;;;;;;4974923;28;20463;-59
2022/03/16 12:35:53;;;;;;;3.05;2.50;;;20.80;42.80;;;;;;4971539;28;20456;-58
2022/03/16 12:38:20;;;;;;;3.53;3.00;;;20.80;42.80;;;;;;4977653;28;20057;-58
2022/03/16 12:43:32;;;;;;;3.92;2.83;;;20.80;42.60;;;;;;4973456;28;20050;-60
2022/03/16 12:45:59;;;;;;;2.70;2.25;;;20.80;42.70;;;;;;4973003;28;20050;-59
2022/03/16 12:48:30;;;;;;;4.32;2.88;;;20.80;42.60;;;;;;4973027;28;20086;-58
2022/03/16 12:50:56;;;;;;;4.38;3.17;;;20.80;42.50;;;;;;4976552;28;20081;-58
2022/03/16 12:53:45;;;;;;;3.08;2.70;;;20.80;42.40;;;;;;4974860;28;20141;-59
2022/03/16 12:56:20;;;;;;;3.50;2.58;;;20.80;42.30;;;;;;4975372;28;20051;-58
2022/03/16 12:58:52;;;;;;;2.92;2.67;;;20.80;42.30;;;;;;4972820;28;20138;-58
2022/03/16 13:01:19;;;;;;;3.17;2.63;;;20.80;42.30;;;;;;4975711;28;20105;-58
2022/03/16 13:03:45;;;;;;;3.40;3.08;;;20.80;42.30;;;;;;4975518;28;20034;-58
2022/03/16 13:06:17;;;;;;;3.05;2.72;;;20.80;42.30;;;;;;4976552;28;20053;-58
2022/03/16 13:08:50;;;;;;;3.42;2.60;;;20.80;42.20;;;;;;4972596;28;20570;-58